sensor_id;sensor_type;location;lat;lon;timestamp;pressure;altitude;pressure_sealevel;temperature;humidity
58843;BME280;44614;54.356;10.100;2023-03-11T00:01:04;99649.66;;;-0.08;100.00
58843;BME280;44614;54.356;10.100;2023-03-11T00:03:29;99642.81;;;-0.10;100.00
58843;BME280;44614;54.356;10.100;2023-03-11T00:05:55;99647.53;;;-0.12;100.00
58843;BME280;44614;54.356;10.100;2023-03-11T00:08:23;99653.94;;;-0.13;100.00
58843;BME280;44614;54.356;10.100;2023-03-11T00:10:54;99653.28;;;-0.15;100.00
58843;BME280;44614;54.356;10.100;2023-03-11T00:13:20;99675.91;;;-0.16;100.00
58843;BME280;44614;54.356;10.100;2023-03-11T00:15:47;99642.66;;;-0.32;100.00
58843;BME280;44614;54.356;10.100;2023-03-11T00:18:14;99675.63;;;-0.21;100.00
58843;BME280;44614;54.356;10.100;2023-03-11T00:20:42;99674.13;;;-0.24;100.00
58843;BME280;44614;54.356;10.100;2023-03-11T00:23:10;99684.75;;;-0.22;100.00
58843;BME280;44614;54.356;10.100;2023-03-11T00:25:36;99680.34;;;-0.23;100.00
58843;BME280;44614;54.356;10.100;2023-03-11T00:28:03;99694.03;;;-0.25;100.00
58843;BME280;44614;54.356;10.100;2023-03-11T00:30:29;99692.03;;;-0.31;100.00
58843;BME280;44614;54.356;10.100;2023-03-11T00:32:56;99707.03;;;-0.29;100.00
58843;BME280;44614;54.356;10.100;2023-03-11T00:35:25;99701.41;;;-0.42;100.00
58843;BME280;44614;54.356;10.100;2023-03-11T00:37:55;99709.31;;;-0.40;100.00
58843;BME280;44614;54.356;10.100;2023-03-11T00:40:23;99716.22;;;-0.38;100.00
58843;BME280;44614;54.356;10.100;2023-03-11T00:42:49;99720.75;;;-0.38;100.00
58843;BME280;44614;54.356;10.100;2023-03-11T00:45:15;99720.13;;;-0.40;100.00
58843;BME280;44614;54.356;10.100;2023-03-11T00:47:41;99723.00;;;-0.42;100.00
58843;BME280;44614;54.356;10.100;2023-03-11T00:50:07;99724.84;;;-0.42;100.00
58843;BME280;44614;54.356;10.100;2023-03-11T00:52:33;99730.06;;;-0.41;100.00
58843;BME280;44614;54.356;10.100;2023-03-11T00:54:59;99738.16;;;-0.41;100.00
58843;BME280;44614;54.356;10.100;2023-03-11T00:57:24;99721.00;;;-0.48;100.00
58843;BME280;44614;54.356;10.100;2023-03-11T00:59:50;99729.59;;;-0.44;100.00
58843;BME280;44614;54.356;10.100;2023-03-11T01:02:16;99737.47;;;-0.43;100.00
58843;BME280;44614;54.356;10.100;2023-03-11T01:04:41;99734.50;;;-0.48;100.00
58843;BME280;44614;54.356;10.100;2023-03-11T01:07:07;99735.81;;;-0.44;100.00
58843;BME280;44614;54.356;10.100;2023-03-11T01:09:32;99741.41;;;-0.45;100.00
58843;BME280;44614;54.356;10.100;2023-03-11T01:11:57;99737.69;;;-0.44;100.00
58843;BME280;44614;54.356;10.100;2023-03-11T01:14:22;99743.06;;;-0.44;100.00
58843;BME280;44614;54.356;10.100;2023-03-11T01:16:48;99758.41;;;-0.45;100.00
58843;BME280;44614;54.356;10.100;2023-03-11T01:19:13;99760.09;;;-0.44;100.00
58843;BME280;44614;54.356;10.100;2023-03-11T01:21:39;99770.19;;;-0.46;100.00
58843;BME280;44614;54.356;10.100;2023-03-11T01:24:04;99768.53;;;-0.47;100.00
58843;BME280;44614;54.356;10.100;2023-03-11T01:26:30;99772.25;;;-0.48;100.00
58843;BME280;44614;54.356;10.100;2023-03-11T01:28:55;99775.59;;;-0.46;100.00
58843;BME280;44614;54.356;10.100;2023-03-11T01:31:20;99751.63;;;-0.64;100.00
58843;BME280;44614;54.356;10.100;2023-03-11T01:33:46;99785.38;;;-0.45;100.00
58843;BME280;44614;54.356;10.100;2023-03-11T01:36:11;99787.91;;;-0.43;100.00
58843;BME280;44614;54.356;10.100;2023-03-11T01:38:36;99791.44;;;-0.43;100.00
58843;BME280;44614;54.356;10.100;2023-03-11T01:41:02;99731.88;;;-0.87;100.00
58843;BME280;44614;54.356;10.100;2023-03-11T01:48:58;99802.75;;;-0.47;100.00
58843;BME280;44614;54.356;10.100;2023-03-11T01:51:45;99808.16;;;-0.47;100.00
58843;BME280;44614;54.356;10.100;2023-03-11T01:54:14;99810.00;;;-0.48;100.00
58843;BME280;44614;54.356;10.100;2023-03-11T01:56:41;99812.91;;;-0.50;100.00
58843;BME280;44614;54.356;10.100;2023-03-11T01:59:08;99814.72;;;-0.50;100.00
58843;BME280;44614;54.356;10.100;2023-03-11T02:01:40;99810.00;;;-0.48;100.00
58843;BME280;44614;54.356;10.100;2023-03-11T02:04:08;99814.09;;;-0.52;100.00
58843;BME280;44614;54.356;10.100;2023-03-11T02:06:33;99821.81;;;-0.49;100.00
58843;BME280;44614;54.356;10.100;2023-03-11T02:09:00;99832.63;;;-0.49;100.00
58843;BME280;44614;54.356;10.100;2023-03-11T02:11:28;99839.88;;;-0.50;100.00
58843;BME280;44614;54.356;10.100;2023-03-11T02:13:59;99839.00;;;-0.50;100.00
58843;BME280;44614;54.356;10.100;2023-03-11T02:16:26;99836.31;;;-0.50;100.00
58843;BME280;44614;54.356;10.100;2023-03-11T02:18:51;99837.34;;;-0.51;100.00
58843;BME280;44614;54.356;10.100;2023-03-11T02:21:21;99850.81;;;-0.51;100.00
58843;BME280;44614;54.356;10.100;2023-03-11T02:26:49;99863.47;;;-0.52;100.00
58843;BME280;44614;54.356;10.100;2023-03-11T02:29:15;99852.88;;;-0.53;100.00
58843;BME280;44614;54.356;10.100;2023-03-11T02:31:42;99863.66;;;-0.53;100.00
58843;BME280;44614;54.356;10.100;2023-03-11T02:34:13;99863.81;;;-0.55;100.00
58843;BME280;44614;54.356;10.100;2023-03-11T02:36:41;99864.84;;;-0.56;100.00
58843;BME280;44614;54.356;10.100;2023-03-11T02:39:07;99867.34;;;-0.54;100.00
58843;BME280;44614;54.356;10.100;2023-03-11T02:41:37;99859.25;;;-0.54;100.00
58843;BME280;44614;54.356;10.100;2023-03-11T02:44:06;99854.22;;;-0.57;100.00
58843;BME280;44614;54.356;10.100;2023-03-11T02:46:32;99867.53;;;-0.56;100.00
58843;BME280;44614;54.356;10.100;2023-03-11T02:48:58;99824.66;;;-0.82;100.00
58843;BME280;44614;54.356;10.100;2023-03-11T02:51:24;99877.81;;;-0.59;100.00
58843;BME280;44614;54.356;10.100;2023-03-11T02:53:55;99881.69;;;-0.62;100.00
58843;BME280;44614;54.356;10.100;2023-03-11T02:56:21;99884.78;;;-0.65;100.00
58843;BME280;44614;54.356;10.100;2023-03-11T02:58:47;99881.38;;;-0.67;100.00
58843;BME280;44614;54.356;10.100;2023-03-11T03:01:12;99847.97;;;-0.97;100.00
58843;BME280;44614;54.356;10.100;2023-03-11T03:03:38;99906.19;;;-0.71;100.00
58843;BME280;44614;54.356;10.100;2023-03-11T03:06:04;99914.28;;;-0.71;100.00
58843;BME280;44614;54.356;10.100;2023-03-11T03:08:30;99916.63;;;-0.77;100.00
58843;BME280;44614;54.356;10.100;2023-03-11T03:10:55;99880.66;;;-1.08;100.00
58843;BME280;44614;54.356;10.100;2023-03-11T03:13:20;99925.25;;;-0.81;100.00
58843;BME280;44614;54.356;10.100;2023-03-11T03:15:46;99929.78;;;-0.82;100.00
58843;BME280;44614;54.356;10.100;2023-03-11T03:18:11;99936.03;;;-0.81;100.00
58843;BME280;44614;54.356;10.100;2023-03-11T03:20:36;99945.31;;;-0.84;100.00
58843;BME280;44614;54.356;10.100;2023-03-11T03:23:02;99944.81;;;-0.87;100.00
58843;BME280;44614;54.356;10.100;2023-03-11T03:25:27;99953.75;;;-0.87;100.00
58843;BME280;44614;54.356;10.100;2023-03-11T03:27:53;99952.91;;;-0.87;100.00
58843;BME280;44614;54.356;10.100;2023-03-11T03:30:18;99959.28;;;-0.88;100.00
58843;BME280;44614;54.356;10.100;2023-03-11T03:32:44;99967.88;;;-0.93;100.00
58843;BME280;44614;54.356;10.100;2023-03-11T03:35:09;99969.94;;;-0.95;100.00
58843;BME280;44614;54.356;10.100;2023-03-11T03:37:36;99968.91;;;-1.02;100.00
58843;BME280;44614;54.356;10.100;2023-03-11T03:40:03;99970.09;;;-1.05;100.00
58843;BME280;44614;54.356;10.100;2023-03-11T03:42:36;99968.56;;;-1.07;100.00
58843;BME280;44614;54.356;10.100;2023-03-11T03:45:03;99978.34;;;-1.06;100.00
58843;BME280;44614;54.356;10.100;2023-03-11T03:47:30;99968.56;;;-1.07;100.00
58843;BME280;44614;54.356;10.100;2023-03-11T03:49:56;99983.56;;;-1.13;100.00
58843;BME280;44614;54.356;10.100;2023-03-11T03:52:21;99977.34;;;-1.21;100.00
58843;BME280;44614;54.356;10.100;2023-03-11T03:54:47;99971.44;;;-1.33;100.00
58843;BME280;44614;54.356;10.100;2023-03-11T03:57:12;99984.41;;;-1.29;100.00
58843;BME280;44614;54.356;10.100;2023-03-11T03:59:37;99990.63;;;-1.28;100.00
58843;BME280;44614;54.356;10.100;2023-03-11T04:02:03;100007.97;;;-1.31;100.00
58843;BME280;44614;54.356;10.100;2023-03-11T04:04:29;99997.88;;;-1.37;100.00
58843;BME280;44614;54.356;10.100;2023-03-11T04:06:54;100007.31;;;-1.33;100.00
58843;BME280;44614;54.356;10.100;2023-03-11T04:09:20;100004.94;;;-1.36;100.00
58843;BME280;44614;54.356;10.100;2023-03-11T04:11:45;100016.03;;;-1.39;100.00
58843;BME280;44614;54.356;10.100;2023-03-11T04:14:11;100004.25;;;-1.46;100.00
58843;BME280;44614;54.356;10.100;2023-03-11T04:16:36;100015.38;;;-1.41;100.00
58843;BME280;44614;54.356;10.100;2023-03-11T04:19:02;100014.03;;;-1.45;100.00
58843;BME280;44614;54.356;10.100;2023-03-11T04:21:29;100010.13;;;-1.59;100.00
58843;BME280;44614;54.356;10.100;2023-03-11T04:23:54;100021.91;;;-1.52;100.00
58843;BME280;44614;54.356;10.100;2023-03-11T04:26:20;100012.31;;;-1.54;100.00
58843;BME280;44614;54.356;10.100;2023-03-11T04:28:45;100021.53;;;-1.57;100.00
58843;BME280;44614;54.356;10.100;2023-03-11T04:31:10;100026.09;;;-1.57;100.00
58843;BME280;44614;54.356;10.100;2023-03-11T04:33:36;100032.81;;;-1.61;100.00
58843;BME280;44614;54.356;10.100;2023-03-11T04:36:07;100004.50;;;-1.82;100.00
58843;BME280;44614;54.356;10.100;2023-03-11T04:38:33;100034.16;;;-1.65;100.00
58843;BME280;44614;54.356;10.100;2023-03-11T04:41:00;100040.56;;;-1.66;100.00
58843;BME280;44614;54.356;10.100;2023-03-11T04:43:25;100041.72;;;-1.69;100.00
58843;BME280;44614;54.356;10.100;2023-03-11T04:45:50;100049.66;;;-1.67;100.00
58843;BME280;44614;54.356;10.100;2023-03-11T04:48:16;100054.34;;;-1.69;100.00
58843;BME280;44614;54.356;10.100;2023-03-11T04:50:41;100059.06;;;-1.72;100.00
58843;BME280;44614;54.356;10.100;2023-03-11T04:53:07;100063.03;;;-1.76;100.00
58843;BME280;44614;54.356;10.100;2023-03-11T04:55:32;100065.91;;;-1.77;100.00
58843;BME280;44614;54.356;10.100;2023-03-11T04:57:57;100070.63;;;-1.79;100.00
58843;BME280;44614;54.356;10.100;2023-03-11T05:00:23;100077.00;;;-1.80;100.00
58843;BME280;44614;54.356;10.100;2023-03-11T05:02:49;100080.53;;;-1.80;100.00
58843;BME280;44614;54.356;10.100;2023-03-11T05:05:14;100081.53;;;-1.81;100.00
58843;BME280;44614;54.356;10.100;2023-03-11T05:07:40;100085.25;;;-1.82;100.00
58843;BME280;44614;54.356;10.100;2023-03-11T05:10:06;100070.72;;;-1.97;100.00
58843;BME280;44614;54.356;10.100;2023-03-11T05:12:32;100091.78;;;-1.84;100.00
58843;BME280;44614;54.356;10.100;2023-03-11T05:14:57;100098.34;;;-1.87;100.00
58843;BME280;44614;54.356;10.100;2023-03-11T05:17:22;100054.31;;;-2.12;100.00
58843;BME280;44614;54.356;10.100;2023-03-11T05:19:49;100098.81;;;-1.91;100.00
58843;BME280;44614;54.356;10.100;2023-03-11T05:22:14;100095.59;;;-1.95;100.00
58843;BME280;44614;54.356;10.100;2023-03-11T05:24:40;100095.94;;;-1.98;100.00
58843;BME280;44614;54.356;10.100;2023-03-11T05:27:05;100097.94;;;-2.00;100.00
58843;BME280;44614;54.356;10.100;2023-03-11T05:29:30;100098.63;;;-1.98;100.00
58843;BME280;44614;54.356;10.100;2023-03-11T05:31:56;100111.22;;;-1.99;100.00
58843;BME280;44614;54.356;10.100;2023-03-11T05:34:21;100095.84;;;-2.14;100.00
58843;BME280;44614;54.356;10.100;2023-03-11T05:36:47;100071.75;;;-2.24;100.00
58843;BME280;44614;54.356;10.100;2023-03-11T05:39:13;100117.56;;;-2.08;100.00
58843;BME280;44614;54.356;10.100;2023-03-11T05:41:38;100118.72;;;-2.10;100.00
58843;BME280;44614;54.356;10.100;2023-03-11T05:44:04;100124.09;;;-2.10;100.00
58843;BME280;44614;54.356;10.100;2023-03-11T05:46:30;100131.34;;;-2.11;100.00
58843;BME280;44614;54.356;10.100;2023-03-11T05:48:57;100138.88;;;-2.14;100.00
58843;BME280;44614;54.356;10.100;2023-03-11T05:51:23;100152.50;;;-2.16;100.00
58843;BME280;44614;54.356;10.100;2023-03-11T05:53:48;100139.22;;;-2.17;100.00
58843;BME280;44614;54.356;10.100;2023-03-11T05:56:14;100139.53;;;-2.21;100.00
58843;BME280;44614;54.356;10.100;2023-03-11T05:58:40;100149.44;;;-2.21;100.00
58843;BME280;44614;54.356;10.100;2023-03-11T06:01:11;100156.63;;;-2.22;100.00
58843;BME280;44614;54.356;10.100;2023-03-11T06:03:38;100168.28;;;-2.21;100.00
58843;BME280;44614;54.356;10.100;2023-03-11T06:06:05;100168.28;;;-2.21;100.00
58843;BME280;44614;54.356;10.100;2023-03-11T06:08:32;100159.97;;;-2.28;100.00
58843;BME280;44614;54.356;10.100;2023-03-11T06:11:06;100166.38;;;-2.29;100.00
58843;BME280;44614;54.356;10.100;2023-03-11T06:13:31;100168.34;;;-2.31;100.00
58843;BME280;44614;54.356;10.100;2023-03-11T06:15:57;100149.25;;;-2.46;100.00
58843;BME280;44614;54.356;10.100;2023-03-11T06:18:22;100178.09;;;-2.30;100.00
58843;BME280;44614;54.356;10.100;2023-03-11T06:20:51;100184.84;;;-2.26;100.00
58843;BME280;44614;54.356;10.100;2023-03-11T06:23:16;100189.09;;;-2.23;100.00
58843;BME280;44614;54.356;10.100;2023-03-11T06:25:41;100193.63;;;-2.24;100.00
58843;BME280;44614;54.356;10.100;2023-03-11T06:28:07;100192.31;;;-2.19;100.00
58843;BME280;44614;54.356;10.100;2023-03-11T06:30:32;100188.47;;;-2.17;100.00
58843;BME280;44614;54.356;10.100;2023-03-11T06:32:58;100201.16;;;-2.09;100.00
58843;BME280;44614;54.356;10.100;2023-03-11T06:35:23;100207.50;;;-2.10;100.00
58843;BME280;44614;54.356;10.100;2023-03-11T06:37:49;100206.19;;;-2.06;100.00
58843;BME280;44614;54.356;10.100;2023-03-11T06:40:14;100207.59;;;-2.02;100.00
58843;BME280;44614;54.356;10.100;2023-03-11T06:42:40;100200.19;;;-2.00;100.00
58843;BME280;44614;54.356;10.100;2023-03-11T06:45:06;100214.09;;;-1.87;100.00
58843;BME280;44614;54.356;10.100;2023-03-11T06:47:31;100217.81;;;-1.80;100.00
58843;BME280;44614;54.356;10.100;2023-03-11T06:49:57;100222.25;;;-1.70;100.00
58843;BME280;44614;54.356;10.100;2023-03-11T06:52:22;100223.63;;;-1.66;100.00
58843;BME280;44614;54.356;10.100;2023-03-11T06:54:48;100204.78;;;-1.66;100.00
58843;BME280;44614;54.356;10.100;2023-03-11T06:57:13;100238.06;;;-1.41;100.00
58843;BME280;44614;54.356;10.100;2023-03-11T06:59:39;100239.94;;;-1.34;99.77
58843;BME280;44614;54.356;10.100;2023-03-11T07:02:05;100242.53;;;-1.24;98.93
58843;BME280;44614;54.356;10.100;2023-03-11T07:04:31;100240.34;;;-1.20;97.86
58843;BME280;44614;54.356;10.100;2023-03-11T07:06:57;100234.34;;;-1.14;97.77
58843;BME280;44614;54.356;10.100;2023-03-11T07:09:22;100241.44;;;-1.05;97.30
58843;BME280;44614;54.356;10.100;2023-03-11T07:11:50;100222.69;;;-1.15;96.46
58843;BME280;44614;54.356;10.100;2023-03-11T07:14:16;100241.13;;;-0.94;95.33
58843;BME280;44614;54.356;10.100;2023-03-11T07:16:41;100264.38;;;-0.93;93.78
58843;BME280;44614;54.356;10.100;2023-03-11T07:19:08;100255.81;;;-0.80;93.73
58843;BME280;44614;54.356;10.100;2023-03-11T07:21:34;100247.25;;;-0.84;93.98
58843;BME280;44614;54.356;10.100;2023-03-11T07:24:01;100248.63;;;-0.71;93.25
58843;BME280;44614;54.356;10.100;2023-03-11T07:26:27;100275.09;;;-0.67;92.52
58843;BME280;44614;54.356;10.100;2023-03-11T07:28:54;100276.63;;;-0.64;92.82
58843;BME280;44614;54.356;10.100;2023-03-11T07:31:24;100271.22;;;-0.64;91.72
58843;BME280;44614;54.356;10.100;2023-03-11T07:33:50;100281.50;;;-0.68;91.69
58843;BME280;44614;54.356;10.100;2023-03-11T07:36:17;100283.34;;;-0.68;92.12
58843;BME280;44614;54.356;10.100;2023-03-11T07:38:44;100285.88;;;-0.67;92.04
58843;BME280;44614;54.356;10.100;2023-03-11T07:41:11;100274.53;;;-0.87;90.81
58843;BME280;44614;54.356;10.100;2023-03-11T07:43:38;100291.91;;;-0.73;91.23
58843;BME280;44614;54.356;10.100;2023-03-11T07:46:10;100300.16;;;-0.75;91.04
58843;BME280;44614;54.356;10.100;2023-03-11T07:48:37;100294.47;;;-0.71;91.71
58843;BME280;44614;54.356;10.100;2023-03-11T07:51:08;100304.06;;;-0.69;92.00
58843;BME280;44614;54.356;10.100;2023-03-11T07:53:35;100298.16;;;-0.72;91.40
58843;BME280;44614;54.356;10.100;2023-03-11T07:56:00;100312.50;;;-0.64;91.05
58843;BME280;44614;54.356;10.100;2023-03-11T07:58:26;100296.47;;;-0.74;91.08
58843;BME280;44614;54.356;10.100;2023-03-11T08:00:52;100314.03;;;-0.61;90.84
58843;BME280;44614;54.356;10.100;2023-03-11T08:03:19;100319.91;;;-0.66;88.55
58843;BME280;44614;54.356;10.100;2023-03-11T08:05:44;100322.28;;;-0.63;89.60
58843;BME280;44614;54.356;10.100;2023-03-11T08:08:10;100326.53;;;-0.60;89.65
58843;BME280;44614;54.356;10.100;2023-03-11T08:10:36;100334.97;;;-0.55;90.16
58843;BME280;44614;54.356;10.100;2023-03-11T08:13:01;100326.88;;;-0.55;88.57
58843;BME280;44614;54.356;10.100;2023-03-11T08:15:27;100334.47;;;-0.51;88.04
58843;BME280;44614;54.356;10.100;2023-03-11T08:17:52;100330.56;;;-0.56;87.44
58843;BME280;44614;54.356;10.100;2023-03-11T08:20:17;100336.00;;;-0.48;88.13
58843;BME280;44614;54.356;10.100;2023-03-11T08:22:43;100336.66;;;-0.46;87.16
58843;BME280;44614;54.356;10.100;2023-03-11T08:25:08;100328.72;;;-0.56;86.49
58843;BME280;44614;54.356;10.100;2023-03-11T08:27:34;100337.34;;;-0.44;84.38
58843;BME280;44614;54.356;10.100;2023-03-11T08:29:59;100349.50;;;-0.40;84.72
58843;BME280;44614;54.356;10.100;2023-03-11T08:32:24;100350.03;;;-0.36;84.61
58843;BME280;44614;54.356;10.100;2023-03-11T08:34:50;100352.22;;;-0.32;85.13
58843;BME280;44614;54.356;10.100;2023-03-11T08:37:15;100346.31;;;-0.27;83.02
58843;BME280;44614;54.356;10.100;2023-03-11T08:39:40;100342.44;;;-0.33;83.43
58843;BME280;44614;54.356;10.100;2023-03-11T08:42:06;100331.97;;;-0.36;81.77
58843;BME280;44614;54.356;10.100;2023-03-11T08:44:31;100361.03;;;-0.13;81.18
58843;BME280;44614;54.356;10.100;2023-03-11T08:46:56;100349.56;;;-0.15;81.47
58843;BME280;44614;54.356;10.100;2023-03-11T08:49:22;100355.13;;;-0.09;81.63
58843;BME280;44614;54.356;10.100;2023-03-11T08:51:47;100361.06;;;-0.05;81.22
58843;BME280;44614;54.356;10.100;2023-03-11T08:54:13;100362.41;;;-0.01;78.93
58843;BME280;44614;54.356;10.100;2023-03-11T08:56:38;100361.06;;;0.03;78.81
58843;BME280;44614;54.356;10.100;2023-03-11T08:59:03;100350.94;;;0.05;78.60
58843;BME280;44614;54.356;10.100;2023-03-11T09:01:29;100366.50;;;0.19;80.07
58843;BME280;44614;54.356;10.100;2023-03-11T09:03:54;100366.00;;;0.24;79.16
58843;BME280;44614;54.356;10.100;2023-03-11T09:06:20;100367.34;;;0.28;80.22
58843;BME280;44614;54.356;10.100;2023-03-11T09:08:46;100349.59;;;0.17;78.96
58843;BME280;44614;54.356;10.100;2023-03-11T09:11:13;100377.13;;;0.37;76.95
58843;BME280;44614;54.356;10.100;2023-03-11T09:13:39;100372.56;;;0.38;73.75
58843;BME280;44614;54.356;10.100;2023-03-11T09:16:08;100375.94;;;0.40;73.52
58843;BME280;44614;54.356;10.100;2023-03-11T09:18:33;100386.09;;;0.46;76.36
58843;BME280;44614;54.356;10.100;2023-03-11T09:20:59;100389.97;;;0.52;77.46
58843;BME280;44614;54.356;10.100;2023-03-11T09:23:25;100394.72;;;0.58;77.28
58843;BME280;44614;54.356;10.100;2023-03-11T09:25:50;100391.81;;;0.67;74.52
58843;BME280;44614;54.356;10.100;2023-03-11T09:28:16;100392.81;;;0.75;75.65
58843;BME280;44614;54.356;10.100;2023-03-11T09:30:41;100396.72;;;0.80;76.03
58843;BME280;44614;54.356;10.100;2023-03-11T09:33:07;100395.38;;;0.84;75.04
58843;BME280;44614;54.356;10.100;2023-03-11T09:35:33;100407.16;;;0.83;74.15
58843;BME280;44614;54.356;10.100;2023-03-11T09:37:58;100399.22;;;0.90;74.40
58843;BME280;44614;54.356;10.100;2023-03-11T09:40:27;100399.91;;;0.92;73.45
58843;BME280;44614;54.356;10.100;2023-03-11T09:52:10;100412.69;;;1.31;74.27
58843;BME280;44614;54.356;10.100;2023-03-11T09:54:48;100410.78;;;1.39;73.75
58843;BME280;44614;54.356;10.100;2023-03-11T09:57:35;100405.53;;;1.46;72.24
58843;BME280;44614;54.356;10.100;2023-03-11T10:00:03;100401.59;;;1.49;73.96
58843;BME280;44614;54.356;10.100;2023-03-11T10:02:31;100401.44;;;1.50;74.09
58843;BME280;44614;54.356;10.100;2023-03-11T10:05:07;100409.50;;;1.66;75.28
58843;BME280;44614;54.356;10.100;2023-03-11T10:07:38;100416.56;;;1.76;73.07
58843;BME280;44614;54.356;10.100;2023-03-11T10:10:05;100402.34;;;1.74;72.10
58843;BME280;44614;54.356;10.100;2023-03-11T10:20:52;100412.75;;;1.93;70.60
58843;BME280;44614;54.356;10.100;2023-03-11T10:26:28;100411.81;;;2.09;71.96
58843;BME280;44614;54.356;10.100;2023-03-11T10:29:12;100411.47;;;2.12;72.17
58843;BME280;44614;54.356;10.100;2023-03-11T10:31:43;100413.28;;;2.19;74.66
58843;BME280;44614;54.356;10.100;2023-03-11T10:34:31;100415.22;;;2.34;75.92
58843;BME280;44614;54.356;10.100;2023-03-11T10:37:05;100409.06;;;2.40;75.34
58843;BME280;44614;54.356;10.100;2023-03-11T10:39:34;100407.72;;;2.36;73.00
58843;BME280;44614;54.356;10.100;2023-03-11T10:42:05;100400.28;;;2.38;71.36
58843;BME280;44614;54.356;10.100;2023-03-11T10:44:38;100309.06;;;1.84;70.48
58843;BME280;44614;54.356;10.100;2023-03-11T10:47:04;100397.69;;;2.44;73.37
58843;BME280;44614;54.356;10.100;2023-03-11T10:49:30;100380.63;;;2.36;72.63
58843;BME280;44614;54.356;10.100;2023-03-11T10:51:56;100411.00;;;2.54;71.42
58843;BME280;44614;54.356;10.100;2023-03-11T10:54:34;100416.66;;;2.67;73.43
58843;BME280;44614;54.356;10.100;2023-03-11T10:57:04;100401.81;;;2.78;72.43
58843;BME280;44614;54.356;10.100;2023-03-11T10:59:45;100410.41;;;2.82;67.97
58843;BME280;44614;54.356;10.100;2023-03-11T11:07:37;100397.59;;;3.13;68.88
58843;BME280;44614;54.356;10.100;2023-03-11T11:12:59;100395.59;;;3.07;71.02
58843;BME280;44614;54.356;10.100;2023-03-11T11:15:34;100402.19;;;3.13;71.49
58843;BME280;44614;54.356;10.100;2023-03-11T11:18:03;100403.84;;;3.14;70.89
58843;BME280;44614;54.356;10.100;2023-03-11T11:20:30;100403.56;;;3.24;70.07
58843;BME280;44614;54.356;10.100;2023-03-11T11:23:05;100399.38;;;3.36;68.56
58843;BME280;44614;54.356;10.100;2023-03-11T11:25:35;100404.72;;;3.44;67.78
58843;BME280;44614;54.356;10.100;2023-03-11T11:28:17;100395.44;;;3.53;69.12
58843;BME280;44614;54.356;10.100;2023-03-11T11:33:30;100396.06;;;3.70;68.49
58843;BME280;44614;54.356;10.100;2023-03-11T11:36:01;100399.91;;;3.76;70.39
58843;BME280;44614;54.356;10.100;2023-03-11T11:38:29;100390.13;;;3.81;66.06
58843;BME280;44614;54.356;10.100;2023-03-11T11:40:57;100382.63;;;3.98;65.67
58843;BME280;44614;54.356;10.100;2023-03-11T11:43:34;100374.47;;;3.98;64.51
58843;BME280;44614;54.356;10.100;2023-03-11T11:46:04;100383.56;;;4.05;64.67
58843;BME280;44614;54.356;10.100;2023-03-11T11:48:42;100385.44;;;4.05;64.23
58843;BME280;44614;54.356;10.100;2023-03-11T11:51:29;100379.13;;;4.04;66.26
58843;BME280;44614;54.356;10.100;2023-03-11T11:56:34;100379.91;;;4.20;66.57
58843;BME280;44614;54.356;10.100;2023-03-11T11:58:59;100381.63;;;4.21;62.82
58843;BME280;44614;54.356;10.100;2023-03-11T12:06:35;100336.91;;;4.45;66.04
58843;BME280;44614;54.356;10.100;2023-03-11T12:11:38;100322.75;;;4.28;58.35
58843;BME280;44614;54.356;10.100;2023-03-11T12:17:03;100352.78;;;4.69;64.77
58843;BME280;44614;54.356;10.100;2023-03-11T12:27:53;100336.84;;;5.22;66.49
58843;BME280;44614;54.356;10.100;2023-03-11T12:30:31;100340.22;;;5.24;62.64
58843;BME280;44614;54.356;10.100;2023-03-11T12:35:54;100345.03;;;5.29;66.88
58843;BME280;44614;54.356;10.100;2023-03-11T12:38:29;100328.94;;;5.34;65.96
58843;BME280;44614;54.356;10.100;2023-03-11T12:43:24;100339.75;;;5.21;60.11
58843;BME280;44614;54.356;10.100;2023-03-11T12:45:54;100343.16;;;5.23;66.47
58843;BME280;44614;54.356;10.100;2023-03-11T12:50:55;100340.78;;;5.54;67.27
58843;BME280;44614;54.356;10.100;2023-03-11T12:56:19;100327.91;;;5.83;63.82
58843;BME280;44614;54.356;10.100;2023-03-11T13:01:29;100326.47;;;5.39;64.26
58843;BME280;44614;54.356;10.100;2023-03-11T13:04:24;100326.00;;;5.77;65.05
58843;BME280;44614;54.356;10.100;2023-03-11T13:12:50;100325.34;;;6.49;62.34
58843;BME280;44614;54.356;10.100;2023-03-11T13:23:22;100305.75;;;5.93;61.51
58843;BME280;44614;54.356;10.100;2023-03-11T13:26:08;100323.88;;;6.47;62.49
58843;BME280;44614;54.356;10.100;2023-03-11T13:31:55;100330.59;;;6.64;59.27
58843;BME280;44614;54.356;10.100;2023-03-11T13:44:51;100321.66;;;7.42;68.86
58843;BME280;44614;54.356;10.100;2023-03-11T13:47:18;100335.19;;;7.03;70.11
58843;BME280;44614;54.356;10.100;2023-03-11T13:52:28;100316.66;;;6.06;68.01
58843;BME280;44614;54.356;10.100;2023-03-11T13:57:30;100346.94;;;5.70;69.32
58843;BME280;44614;54.356;10.100;2023-03-11T13:59:57;100362.81;;;5.59;68.55
58843;BME280;44614;54.356;10.100;2023-03-11T14:02:26;100381.25;;;5.23;72.37
58843;BME280;44614;54.356;10.100;2023-03-11T14:05:05;100388.56;;;4.94;76.63
58843;BME280;44614;54.356;10.100;2023-03-11T14:07:32;100377.09;;;4.49;80.82
58843;BME280;44614;54.356;10.100;2023-03-11T14:10:24;100393.28;;;4.57;84.02
58843;BME280;44614;54.356;10.100;2023-03-11T14:12:49;100383.22;;;5.07;82.14
58843;BME280;44614;54.356;10.100;2023-03-11T14:15:25;100385.78;;;5.44;78.54
58843;BME280;44614;54.356;10.100;2023-03-11T14:17:52;100376.97;;;5.90;77.09
58843;BME280;44614;54.356;10.100;2023-03-11T14:20:19;100379.00;;;6.16;76.78
58843;BME280;44614;54.356;10.100;2023-03-11T14:22:55;100380.03;;;6.15;72.97
58843;BME280;44614;54.356;10.100;2023-03-11T14:25:23;100372.28;;;6.12;72.54
58843;BME280;44614;54.356;10.100;2023-03-11T14:28:01;100387.16;;;5.68;74.01
58843;BME280;44614;54.356;10.100;2023-03-11T14:30:29;100373.66;;;5.46;73.60